Terminal Aerodrome Forecast
Issued by NWS Cleveland, OH

Home | Current Version | Previous Version | Graphics & Text | Print | Product List | Glossary Off
Versions: 1 2 3 4 5 6 7 8 9 10 11 12 13 14 15 16 17 18 19 20 21

997
FTUS41 KCLE 262212 AAA
TAFERI
TAF AMD
KERI 262212Z 2622/2718 26010KT P6SM OVC030
      TEMPO 2622/2702 OVC040
     FM270200 VRB04KT P6SM BKN040
     FM271100 VRB04KT 6SM -SHRA VCTS SCT015CB OVC025
     FM271500 01006KT P6SM OVC015=

USA.gov is the U.S. government's official web portal to all federal, state and local government web resources and services.